South Boardman, Michigan
Current Conditions -  °F | °C
As of 7:53 PM on Tuesday 21 Oct 2014 (Local Time) from KTVC Reporting Station
Clear Clear  
Wind Chill: 41°   Ceiling: Unl
Heat Index: 45°   Visibility: 10mi
Dew Point: 32°   Wind: 7mph
Humidity: 60%   Direction: 340°NNW
Pressure: 30.24"   Gusts: NA
Location:  44.64°N, 85.28°W
Report Text: KTVC 212353Z 34006KT 10SM CLR 07/00 A3024 RMK AO2 SLP245 T00720000 10094 20072 51020
Loading
Personal Weather Stations






























Interactive Weather Map
Tropical Storm Tracking
New forecast layout! Learn more

10-Day Weather Forecast

Advertisements
Track Severe Weather on mobile